createdAt,value
2017-11-06T00:00:12.598Z,0
2017-11-06T00:01:22.998Z,0
2017-11-06T00:02:33.397Z,0
2017-11-06T00:03:43.461Z,0
2017-11-06T00:04:53.880Z,0
2017-11-06T00:06:03.634Z,0
2017-11-06T00:07:13.726Z,0
2017-11-06T00:08:23.815Z,0
2017-11-06T00:09:33.554Z,0
2017-11-06T00:10:43.964Z,0
2017-11-06T00:11:54.428Z,0
2017-11-06T00:13:04.509Z,0
2017-11-06T00:14:14.591Z,0
2017-11-06T00:15:25.011Z,0
2017-11-06T00:16:35.076Z,0
2017-11-06T00:17:47.779Z,0
2017-11-06T00:18:57.875Z,0
2017-11-06T00:20:07.968Z,0
2017-11-06T00:21:18.023Z,0
2017-11-06T00:22:28.435Z,0
2017-11-06T00:23:38.906Z,0
2017-11-06T00:24:49.308Z,0
2017-11-06T00:25:59.710Z,0
2017-11-06T00:27:10.135Z,0
2017-11-06T00:28:20.533Z,0
2017-11-06T00:29:30.614Z,0
2017-11-06T00:30:41.064Z,0
2017-11-06T00:31:51.469Z,0
2017-11-06T00:33:01.850Z,0
2017-11-06T00:34:12.240Z,0
2017-11-06T00:35:22.688Z,0
2017-11-06T00:36:32.757Z,0
2017-11-06T00:37:42.823Z,0
2017-11-06T00:38:53.245Z,0
2017-11-06T00:40:03.667Z,0
2017-11-06T00:41:14.067Z,0
2017-11-06T00:42:24.464Z,0
2017-11-06T00:43:34.876Z,0
2017-11-06T00:44:45.274Z,0
2017-11-06T00:45:55.669Z,0
2017-11-06T00:47:06.089Z,0
2017-11-06T00:48:16.150Z,0
2017-11-06T00:49:26.583Z,0
2017-11-06T00:50:37.002Z,0
2017-11-06T00:51:47.405Z,0
2017-11-06T00:52:57.835Z,0
2017-11-06T00:54:08.239Z,0
2017-11-06T00:55:18.335Z,0
2017-11-06T00:56:28.736Z,0
2017-11-06T00:57:39.128Z,0
2017-11-06T00:58:49.536Z,0
2017-11-06T00:59:59.611Z,0
2017-11-06T01:01:10.003Z,0
2017-11-06T01:02:20.420Z,0
2017-11-06T01:03:30.818Z,0
2017-11-06T01:04:40.944Z,0
2017-11-06T01:05:51.342Z,0
2017-11-06T01:07:01.417Z,0
2017-11-06T01:08:11.534Z,0
2017-11-06T01:09:21.610Z,0
2017-11-06T01:10:32.007Z,0
2017-11-06T01:11:42.410Z,0
2017-11-06T01:12:52.814Z,0
2017-11-06T01:14:02.887Z,0
2017-11-06T01:15:12.295Z,0
2017-11-06T01:16:22.365Z,0
2017-11-06T01:17:32.432Z,0
2017-11-06T01:18:42.837Z,0
2017-11-06T01:19:53.230Z,0
2017-11-06T01:21:03.305Z,0
2017-11-06T01:22:13.369Z,0
2017-11-06T01:23:23.781Z,0
2017-11-06T01:24:33.855Z,0
2017-11-06T01:25:44.247Z,0
2017-11-06T01:26:54.665Z,0
2017-11-06T01:28:05.154Z,0
2017-11-06T01:29:15.243Z,0
2017-11-06T01:30:25.656Z,0
2017-11-06T01:31:36.071Z,0
2017-11-06T01:32:45.821Z,0
2017-11-06T01:33:56.217Z,0
2017-11-06T01:35:06.638Z,0
2017-11-06T01:36:17.043Z,0
2017-11-06T01:37:27.440Z,0
2017-11-06T01:38:37.839Z,0
2017-11-06T01:39:47.902Z,0
2017-11-06T01:40:57.960Z,0
2017-11-06T01:42:08.029Z,0
2017-11-06T01:43:18.457Z,0
2017-11-06T01:44:28.858Z,0
2017-11-06T01:45:39.324Z,0
2017-11-06T01:46:49.741Z,0
2017-11-06T01:48:00.137Z,0
2017-11-06T01:49:10.533Z,0
2017-11-06T01:50:20.953Z,0
2017-11-06T01:51:30.693Z,0
2017-11-06T01:52:41.090Z,0
2017-11-06T01:53:51.502Z,0
2017-11-06T01:55:01.906Z,0
2017-11-06T01:56:11.962Z,0
2017-11-06T01:57:22.413Z,0
2017-11-06T01:58:32.811Z,0
2017-11-06T01:59:43.210Z,0
2017-11-06T02:00:53.603Z,0
2017-11-06T02:02:04.021Z,0
2017-11-06T02:03:14.424Z,0
2017-11-06T02:04:25.734Z,0
2017-11-06T02:05:36.126Z,0
2017-11-06T02:06:47.407Z,0
2017-11-06T02:07:57.150Z,0
2017-11-06T02:09:07.602Z,0
2017-11-06T02:10:18.001Z,0
2017-11-06T02:11:28.405Z,0
2017-11-06T02:12:38.815Z,0
2017-11-06T02:13:49.229Z,0
2017-11-06T02:14:59.668Z,0
2017-11-06T02:16:10.065Z,0
2017-11-06T02:17:20.453Z,0
2017-11-06T02:18:30.856Z,0
2017-11-06T02:19:41.259Z,0
2017-11-06T02:20:51.668Z,0
2017-11-06T02:22:02.081Z,0
2017-11-06T02:23:12.474Z,0
2017-11-06T02:24:22.888Z,0
2017-11-06T02:25:33.325Z,0
2017-11-06T02:26:43.883Z,0
2017-11-06T02:27:53.625Z,0
2017-11-06T02:29:04.073Z,0
2017-11-06T02:30:14.481Z,0
2017-11-06T02:31:24.886Z,0
2017-11-06T02:32:35.013Z,0
2017-11-06T02:33:45.200Z,0
2017-11-06T02:34:55.278Z,0
2017-11-06T02:36:05.689Z,0
2017-11-06T02:37:16.103Z,0
2017-11-06T02:38:26.568Z,0
2017-11-06T02:39:36.969Z,0
2017-11-06T02:40:47.383Z,0
2017-11-06T02:41:57.830Z,0
2017-11-06T02:43:08.236Z,0
2017-11-06T02:44:18.638Z,0
2017-11-06T02:45:28.717Z,0
2017-11-06T02:46:39.182Z,0
2017-11-06T02:47:49.584Z,0
2017-11-06T02:48:59.982Z,0
2017-11-06T02:50:10.441Z,0
2017-11-06T02:51:20.489Z,0
2017-11-06T02:52:30.890Z,0
2017-11-06T02:53:41.306Z,0
2017-11-06T02:54:51.724Z,0
2017-11-06T02:56:01.798Z,0
2017-11-06T02:57:12.204Z,0
2017-11-06T02:58:22.599Z,0
2017-11-06T02:59:33.000Z,0
2017-11-06T03:00:43.064Z,0
2017-11-06T03:33:05.561Z,0
2017-11-06T03:34:15.963Z,0
2017-11-06T03:35:26.362Z,0
2017-11-06T03:36:36.433Z,0
2017-11-06T03:37:46.175Z,0
2017-11-06T03:38:56.567Z,0
2017-11-06T03:40:06.981Z,0
2017-11-06T03:41:17.051Z,0
2017-11-06T03:42:27.119Z,0
2017-11-06T03:43:37.520Z,0
2017-11-06T03:44:47.973Z,0
2017-11-06T03:45:58.060Z,0
2017-11-06T03:47:08.449Z,0
2017-11-06T03:48:18.196Z,0
2017-11-06T03:49:28.588Z,0
2017-11-06T03:50:39.027Z,0
2017-11-06T03:51:49.425Z,0
2017-11-06T03:52:59.829Z,0
2017-11-06T03:54:09.904Z,0
2017-11-06T03:55:19.639Z,0
2017-11-06T03:56:30.037Z,0
2017-11-06T03:57:40.137Z,0
2017-11-06T03:58:50.562Z,0
2017-11-06T04:00:00.959Z,0
2017-11-06T04:01:11.360Z,0
2017-11-06T04:02:21.757Z,0
2017-11-06T04:03:31.834Z,0
2017-11-06T04:04:42.238Z,0
2017-11-06T04:05:52.314Z,0
2017-11-06T04:07:02.718Z,0
2017-11-06T04:08:12.849Z,0
2017-11-06T04:09:23.255Z,0
2017-11-06T04:10:33.319Z,0
2017-11-06T04:11:43.743Z,0
2017-11-06T04:12:54.145Z,0
2017-11-06T04:14:04.593Z,0
2017-11-06T04:15:14.339Z,0
2017-11-06T04:16:24.434Z,0
2017-11-06T04:17:34.834Z,0
2017-11-06T04:18:45.243Z,0
2017-11-06T04:19:55.357Z,0
2017-11-06T04:21:05.748Z,0
2017-11-06T04:22:16.175Z,0
2017-11-06T04:23:25.918Z,0
2017-11-06T04:24:36.329Z,0
2017-11-06T04:25:46.753Z,0
2017-11-06T04:26:57.168Z,0
2017-11-06T04:28:07.581Z,0
2017-11-06T04:29:17.981Z,0
2017-11-06T04:30:28.390Z,0
2017-11-06T04:31:38.805Z,0
2017-11-06T04:32:48.881Z,0
2017-11-06T04:33:59.269Z,0
2017-11-06T04:35:09.670Z,0
2017-11-06T04:36:20.082Z,0
2017-11-06T04:37:30.473Z,0
2017-11-06T04:38:40.557Z,0
2017-11-06T04:39:50.653Z,0
2017-11-06T04:41:00.729Z,0
2017-11-06T04:42:11.131Z,0
2017-11-06T04:43:21.539Z,0
2017-11-06T04:44:31.931Z,0
2017-11-06T04:45:42.011Z,0
2017-11-06T04:46:52.415Z,0
2017-11-06T04:48:02.513Z,0
2017-11-06T04:49:12.938Z,0
2017-11-06T04:50:23.334Z,0
2017-11-06T04:51:33.740Z,0
2017-11-06T04:52:43.808Z,0
2017-11-06T04:53:53.228Z,0
2017-11-06T04:55:03.676Z,0
2017-11-06T04:56:14.079Z,0
2017-11-06T04:57:24.487Z,0
2017-11-06T04:58:34.878Z,0
2017-11-06T04:59:45.269Z,0
2017-11-06T05:00:55.393Z,0
2017-11-06T05:02:05.798Z,0
2017-11-06T05:03:15.886Z,0
2017-11-06T05:04:26.278Z,0
2017-11-06T05:05:36.675Z,0
2017-11-06T05:06:47.121Z,0
2017-11-06T05:07:57.528Z,0
2017-11-06T05:09:07.950Z,0
2017-11-06T05:10:18.359Z,0
2017-11-06T05:11:28.095Z,0
2017-11-06T05:12:38.175Z,0
2017-11-06T05:13:48.258Z,0
2017-11-06T05:14:58.654Z,0
2017-11-06T05:16:09.121Z,0
2017-11-06T05:17:18.856Z,0
2017-11-06T05:18:28.976Z,0
2017-11-06T05:19:39.366Z,0
2017-11-06T05:20:49.774Z,0
2017-11-06T05:21:59.829Z,0
2017-11-06T05:23:09.568Z,0
2017-11-06T05:24:20.057Z,0
2017-11-06T05:25:30.145Z,0
2017-11-06T05:26:40.562Z,0
2017-11-06T05:27:50.959Z,0
2017-11-06T05:29:01.032Z,0
2017-11-06T05:30:11.439Z,0
2017-11-06T05:31:21.846Z,0
2017-11-06T05:32:32.247Z,0
2017-11-06T05:33:42.638Z,0
2017-11-06T05:34:53.060Z,0
2017-11-06T05:36:03.134Z,0
2017-11-06T05:37:13.229Z,0
2017-11-06T05:38:23.616Z,0
2017-11-06T05:39:34.019Z,0
2017-11-06T05:40:44.420Z,0
2017-11-06T05:41:54.883Z,0
2017-11-06T05:43:05.273Z,0
2017-11-06T05:44:15.689Z,0
2017-11-06T05:45:25.776Z,0
2017-11-06T05:46:36.207Z,0
2017-11-06T05:47:46.620Z,0
2017-11-06T05:48:57.033Z,0
2017-11-06T05:50:07.462Z,0
2017-11-06T05:51:17.866Z,0
2017-11-06T05:52:28.260Z,0
2017-11-06T05:53:38.378Z,0
2017-11-06T05:54:48.797Z,0
2017-11-06T05:55:58.876Z,0
2017-11-06T05:57:08.642Z,0
2017-11-06T05:58:19.044Z,0
2017-11-06T05:59:29.107Z,0
2017-11-06T06:00:39.169Z,0
2017-11-06T06:01:49.248Z,0
2017-11-06T06:02:59.312Z,0
2017-11-06T06:04:09.383Z,0
2017-11-06T06:05:19.845Z,0
2017-11-06T06:06:30.292Z,5
2017-11-06T06:07:40.365Z,5
2017-11-06T06:08:50.755Z,5
2017-11-06T06:10:00.828Z,5
2017-11-06T06:11:11.216Z,5
2017-11-06T06:12:21.287Z,5
2017-11-06T06:13:31.693Z,5
2017-11-06T06:14:41.769Z,5
2017-11-06T06:15:51.502Z,5
2017-11-06T06:17:01.298Z,5
2017-11-06T06:18:11.712Z,5
2017-11-06T06:19:22.107Z,5
2017-11-06T06:20:32.543Z,5
2017-11-06T06:21:42.937Z,5
2017-11-06T06:22:53.386Z,5
2017-11-06T06:24:03.462Z,5
2017-11-06T06:25:13.861Z,10
2017-11-06T06:26:24.251Z,10
2017-11-06T06:27:34.658Z,10
2017-11-06T06:28:45.336Z,10
2017-11-06T06:29:55.732Z,10
2017-11-06T06:31:06.135Z,10
2017-11-06T06:32:15.537Z,15
2017-11-06T06:33:25.937Z,15
2017-11-06T06:34:36.340Z,15
2017-11-06T06:35:46.749Z,15
2017-11-06T06:36:56.834Z,15
2017-11-06T06:38:06.907Z,15
2017-11-06T06:39:16.972Z,15
2017-11-06T06:40:27.057Z,15
2017-11-06T06:41:37.470Z,15
2017-11-06T06:42:47.877Z,15
2017-11-06T06:43:57.953Z,15
2017-11-06T06:45:08.359Z,15
2017-11-06T06:46:18.444Z,15
2017-11-06T06:47:28.518Z,15
2017-11-06T06:48:38.921Z,15
2017-11-06T06:49:49.323Z,15
2017-11-06T06:50:59.388Z,15
2017-11-06T06:52:09.477Z,15
2017-11-06T06:53:19.567Z,15
2017-11-06T06:54:29.970Z,20
2017-11-06T06:55:40.044Z,20
2017-11-06T06:56:50.138Z,20
2017-11-06T06:58:00.267Z,20
2017-11-06T06:59:10.672Z,20
2017-11-06T07:00:21.060Z,20
2017-11-06T07:01:31.456Z,20
2017-11-06T07:02:41.880Z,20
2017-11-06T07:03:52.318Z,25
2017-11-06T07:05:02.401Z,25
2017-11-06T07:06:12.461Z,25
2017-11-06T07:07:22.856Z,25
2017-11-06T07:08:33.261Z,30
2017-11-06T07:09:43.334Z,30
2017-11-06T07:10:53.729Z,30
2017-11-06T07:12:04.143Z,30
2017-11-06T07:13:14.219Z,30
2017-11-06T07:14:24.624Z,30
2017-11-06T07:15:34.687Z,30
2017-11-06T07:16:45.082Z,30
2017-11-06T07:17:55.465Z,30
2017-11-06T07:19:05.870Z,25
2017-11-06T07:20:15.958Z,25
2017-11-06T07:21:26.098Z,25
2017-11-06T07:22:36.482Z,25
2017-11-06T07:23:46.869Z,25
2017-11-06T07:24:57.093Z,25
2017-11-06T07:26:07.492Z,25
2017-11-06T07:27:17.548Z,30
2017-11-06T07:28:27.944Z,30
2017-11-06T07:29:39.548Z,30
2017-11-06T07:30:49.863Z,30
2017-11-06T07:32:00.251Z,30
2017-11-06T07:33:10.748Z,30
2017-11-06T07:34:20.497Z,30
2017-11-06T07:35:30.580Z,30
2017-11-06T07:36:40.973Z,30
2017-11-06T07:37:51.374Z,30
2017-11-06T07:39:01.816Z,30
2017-11-06T07:40:12.878Z,30
2017-11-06T07:41:22.944Z,30
2017-11-06T07:42:33.016Z,30
2017-11-06T07:43:43.374Z,30
2017-11-06T07:44:53.801Z,30
2017-11-06T07:46:03.843Z,30
2017-11-06T07:47:14.218Z,30
2017-11-06T07:48:24.626Z,30
2017-11-06T07:49:34.696Z,30
2017-11-06T07:50:45.115Z,30
2017-11-06T07:51:55.525Z,30
2017-11-06T07:53:05.934Z,30
2017-11-06T07:54:16.421Z,30
2017-11-06T07:55:26.497Z,35
2017-11-06T07:56:36.951Z,40
2017-11-06T07:57:47.372Z,40
2017-11-06T07:58:57.462Z,40
2017-11-06T08:00:07.530Z,40
2017-11-06T08:01:17.929Z,40
2017-11-06T08:02:28.347Z,40
2017-11-06T08:03:38.762Z,40
2017-11-06T08:04:48.975Z,45
2017-11-06T08:05:59.049Z,45
2017-11-06T08:07:09.477Z,40
2017-11-06T08:08:19.947Z,40
2017-11-06T08:09:30.346Z,40
2017-11-06T08:10:40.745Z,40
2017-11-06T08:11:51.167Z,40
2017-11-06T08:13:01.617Z,40
2017-11-06T08:14:12.055Z,40
2017-11-06T08:15:22.487Z,40
2017-11-06T08:16:32.886Z,40
2017-11-06T08:17:42.960Z,40
2017-11-06T08:18:53.405Z,40
2017-11-06T08:20:03.472Z,40
2017-11-06T08:21:13.539Z,40
2017-11-06T08:22:23.961Z,40
2017-11-06T08:23:34.379Z,40
2017-11-06T08:24:44.743Z,40
2017-11-06T08:25:55.215Z,45
2017-11-06T08:27:05.626Z,45
2017-11-06T08:28:16.038Z,45
2017-11-06T08:29:26.107Z,45
2017-11-06T08:30:36.502Z,45
2017-11-06T08:31:46.980Z,45
2017-11-06T08:32:57.386Z,45
2017-11-06T08:34:07.781Z,45
2017-11-06T08:35:18.209Z,45
2017-11-06T08:36:28.617Z,50
2017-11-06T08:37:38.734Z,50
2017-11-06T08:38:48.805Z,50
2017-11-06T08:39:59.199Z,50
2017-11-06T08:41:09.627Z,50
2017-11-06T08:42:19.361Z,50
2017-11-06T08:43:29.838Z,55
2017-11-06T08:44:39.927Z,55
2017-11-06T08:45:50.336Z,55
2017-11-06T08:47:00.753Z,55
2017-11-06T08:48:11.152Z,50
2017-11-06T08:49:21.243Z,50
2017-11-06T08:50:31.644Z,45
2017-11-06T08:51:42.032Z,40
2017-11-06T08:52:52.697Z,40
2017-11-06T08:54:03.125Z,40
2017-11-06T08:55:13.210Z,40
2017-11-06T08:56:23.644Z,35
2017-11-06T08:57:34.065Z,35
2017-11-06T08:58:44.481Z,35
2017-11-06T08:59:54.557Z,35
2017-11-06T09:01:04.996Z,35
2017-11-06T09:02:15.407Z,35
2017-11-06T09:03:25.842Z,30
2017-11-06T09:04:36.240Z,30
2017-11-06T09:05:46.658Z,30
2017-11-06T09:06:56.742Z,30
2017-11-06T09:08:06.480Z,30
2017-11-06T09:09:16.872Z,30
2017-11-06T09:10:27.260Z,35
2017-11-06T09:11:37.663Z,35
2017-11-06T09:12:48.873Z,35
2017-11-06T09:13:58.935Z,35
2017-11-06T09:15:09.016Z,35
2017-11-06T09:16:20.107Z,35
2017-11-06T09:17:30.182Z,35
2017-11-06T09:18:40.625Z,35
2017-11-06T09:19:51.042Z,35
2017-11-06T09:21:01.473Z,35
2017-11-06T09:22:11.894Z,35
2017-11-06T09:23:22.348Z,35
2017-11-06T09:24:32.497Z,35
2017-11-06T09:25:42.912Z,35
2017-11-06T09:26:52.979Z,35
2017-11-06T09:28:03.372Z,35
2017-11-06T09:29:13.783Z,35
2017-11-06T09:30:23.581Z,40
2017-11-06T09:31:33.998Z,40
2017-11-06T09:32:44.408Z,40
2017-11-06T09:33:54.809Z,40
2017-11-06T09:35:05.240Z,40
2017-11-06T09:36:15.646Z,40
2017-11-06T09:37:26.042Z,40
2017-11-06T09:38:36.490Z,40
2017-11-06T09:39:46.906Z,35
2017-11-06T09:40:57.320Z,35
2017-11-06T09:42:07.872Z,35
2017-11-06T09:43:18.284Z,35
2017-11-06T09:44:28.894Z,35
2017-11-06T09:45:39.340Z,35
2017-11-06T09:46:49.737Z,35
2017-11-06T09:47:59.805Z,40
2017-11-06T09:49:10.146Z,40
2017-11-06T09:50:20.546Z,40
2017-11-06T09:51:30.996Z,40
2017-11-06T09:52:41.495Z,35
2017-11-06T09:53:51.963Z,35
2017-11-06T09:55:02.043Z,30
2017-11-06T09:56:12.455Z,30
2017-11-06T09:57:22.878Z,30
2017-11-06T09:58:46.240Z,30
2017-11-06T09:59:56.651Z,30
2017-11-06T10:01:07.055Z,30
2017-11-06T10:02:16.812Z,30
2017-11-06T10:03:27.215Z,30
2017-11-06T10:04:37.637Z,30
2017-11-06T10:05:47.433Z,30
2017-11-06T10:06:57.507Z,30
2017-11-06T10:08:07.605Z,30
2017-11-06T10:09:18.029Z,35
2017-11-06T10:10:28.434Z,35
2017-11-06T10:11:38.892Z,40
2017-11-06T10:12:49.310Z,40
2017-11-06T10:13:59.724Z,45
2017-11-06T10:15:10.160Z,45
2017-11-06T10:16:20.731Z,50
2017-11-06T10:17:31.154Z,55
2017-11-06T10:18:41.553Z,55
2017-11-06T10:19:51.640Z,60
2017-11-06T10:21:02.058Z,60
2017-11-06T10:22:12.194Z,60
2017-11-06T10:23:22.288Z,60
2017-11-06T10:24:32.382Z,55
2017-11-06T10:25:42.808Z,55
2017-11-06T10:26:52.903Z,55
2017-11-06T10:28:03.387Z,50
2017-11-06T10:29:13.800Z,50
2017-11-06T10:30:24.208Z,50
2017-11-06T10:31:34.633Z,50
2017-11-06T10:32:45.064Z,50
2017-11-06T10:33:54.807Z,50
2017-11-06T10:35:05.233Z,50
2017-11-06T10:36:15.643Z,50
2017-11-06T10:37:26.054Z,55
2017-11-06T10:38:36.500Z,55
2017-11-06T10:39:46.610Z,60
2017-11-06T10:40:56.705Z,55
2017-11-06T10:42:07.102Z,55
2017-11-06T10:43:17.175Z,50
2017-11-06T10:44:27.271Z,50
2017-11-06T10:45:37.684Z,50
2017-11-06T10:46:48.078Z,45
2017-11-06T10:47:58.479Z,45
2017-11-06T10:49:08.889Z,40
2017-11-06T10:50:19.299Z,40
2017-11-06T10:51:29.785Z,40
2017-11-06T10:52:40.215Z,45
2017-11-06T10:53:50.655Z,45
2017-11-06T10:55:01.063Z,45
2017-11-06T10:56:11.471Z,45
2017-11-06T10:57:21.896Z,45
2017-11-06T10:58:32.301Z,45
2017-11-06T10:59:42.716Z,45
2017-11-06T11:00:53.140Z,40
2017-11-06T11:02:03.568Z,40
2017-11-06T11:03:13.971Z,40
2017-11-06T11:04:24.384Z,40
2017-11-06T11:05:34.798Z,40
2017-11-06T11:06:44.879Z,40
2017-11-06T11:07:55.300Z,40
2017-11-06T11:09:05.399Z,40
2017-11-06T11:10:15.800Z,45
2017-11-06T11:11:26.219Z,50
2017-11-06T11:12:36.639Z,45
2017-11-06T11:13:47.070Z,50
2017-11-06T11:14:57.518Z,50
2017-11-06T11:16:07.969Z,50
2017-11-06T11:17:18.401Z,45
2017-11-06T11:18:28.807Z,45
2017-11-06T11:19:38.903Z,45
2017-11-06T11:20:49.392Z,45
2017-11-06T11:21:59.814Z,45
2017-11-06T11:23:09.906Z,45
2017-11-06T11:24:20.319Z,45
2017-11-06T11:25:30.735Z,45
2017-11-06T11:26:41.186Z,45
2017-11-06T11:27:51.270Z,40
2017-11-06T11:29:01.681Z,40
2017-11-06T11:30:11.761Z,40
2017-11-06T11:31:22.181Z,40
2017-11-06T11:32:32.655Z,35
2017-11-06T11:33:43.055Z,40
2017-11-06T11:34:53.498Z,40
2017-11-06T11:36:03.921Z,35
2017-11-06T11:37:13.683Z,35
2017-11-06T11:38:24.145Z,35
2017-11-06T11:39:34.242Z,35
2017-11-06T11:40:44.344Z,30
2017-11-06T11:41:54.410Z,30
2017-11-06T11:43:04.819Z,35
2017-11-06T11:44:15.299Z,35
2017-11-06T11:45:25.731Z,35
2017-11-06T11:46:36.253Z,40
2017-11-06T11:47:46.675Z,35
2017-11-06T11:48:56.427Z,35
2017-11-06T11:50:06.843Z,35
2017-11-06T11:51:16.941Z,35
2017-11-06T11:52:27.371Z,35
2017-11-06T11:53:37.789Z,35
2017-11-06T11:54:48.201Z,35
2017-11-06T11:55:58.308Z,35
2017-11-06T11:57:08.732Z,35
2017-11-06T11:58:19.133Z,35
2017-11-06T11:59:29.552Z,35
2017-11-06T12:00:39.974Z,30
2017-11-06T12:01:50.387Z,30
2017-11-06T12:03:00.809Z,30
2017-11-06T12:04:11.220Z,30
2017-11-06T12:05:21.642Z,30
2017-11-06T12:06:32.042Z,30
2017-11-06T12:07:42.502Z,30
2017-11-06T12:08:52.919Z,35
2017-11-06T12:10:03.350Z,35
2017-11-06T12:11:13.761Z,40
2017-11-06T12:12:24.172Z,40
2017-11-06T12:13:34.322Z,40
2017-11-06T12:14:44.737Z,40
2017-11-06T12:15:55.140Z,40
2017-11-06T12:17:05.579Z,45
2017-11-06T12:18:16.015Z,50
2017-11-06T12:19:26.499Z,55
2017-11-06T12:20:36.896Z,55
2017-11-06T12:21:46.643Z,55
2017-11-06T12:22:57.090Z,55
2017-11-06T12:24:07.501Z,55
2017-11-06T12:25:17.969Z,60
2017-11-06T12:26:28.376Z,65
2017-11-06T12:27:38.836Z,65
2017-11-06T12:28:49.253Z,70
2017-11-06T12:29:59.685Z,70
2017-11-06T12:31:09.821Z,75
2017-11-06T12:32:19.591Z,70
2017-11-06T12:33:30.001Z,70
2017-11-06T12:34:40.415Z,70
2017-11-06T12:35:50.511Z,65
2017-11-06T12:37:00.974Z,65
2017-11-06T12:38:11.385Z,65
2017-11-06T12:39:21.471Z,65
2017-11-06T12:40:31.898Z,65
2017-11-06T12:41:42.326Z,65
2017-11-06T12:42:53.285Z,65
2017-11-06T12:44:03.845Z,60
2017-11-06T12:45:14.286Z,60
2017-11-06T12:46:24.691Z,55
2017-11-06T12:47:35.118Z,55
2017-11-06T12:48:45.592Z,55
2017-11-06T12:49:55.979Z,55
2017-11-06T12:51:06.407Z,55
2017-11-06T12:52:16.835Z,60
2017-11-06T12:53:27.253Z,55
2017-11-06T12:54:37.746Z,55
2017-11-06T12:55:48.142Z,55
2017-11-06T12:56:58.587Z,55
2017-11-06T12:58:08.999Z,55
2017-11-06T12:59:19.424Z,55
2017-11-06T13:00:29.878Z,55
2017-11-06T13:01:40.313Z,55
2017-11-06T13:02:50.423Z,60
2017-11-06T13:04:00.838Z,60
2017-11-06T13:05:11.248Z,65
2017-11-06T13:06:21.645Z,65
2017-11-06T13:07:32.048Z,70
2017-11-06T13:08:42.450Z,70
2017-11-06T13:09:52.859Z,70
2017-11-06T13:11:02.941Z,70
2017-11-06T13:12:13.030Z,70
2017-11-06T13:13:23.128Z,70
2017-11-06T13:14:33.535Z,70
2017-11-06T13:15:43.634Z,70
2017-11-06T13:16:54.038Z,70
2017-11-06T13:18:04.441Z,70
2017-11-06T13:19:14.524Z,70
2017-11-06T13:20:24.962Z,65
2017-11-06T13:21:35.357Z,65
2017-11-06T13:22:45.464Z,60
2017-11-06T13:23:55.538Z,55
2017-11-06T13:25:05.925Z,55
2017-11-06T13:26:15.670Z,55
2017-11-06T13:27:25.749Z,50
2017-11-06T13:28:36.167Z,50
2017-11-06T13:29:46.616Z,50
2017-11-06T13:30:57.040Z,50
2017-11-06T13:32:07.461Z,55
2017-11-06T13:33:17.988Z,55
2017-11-06T13:34:28.381Z,55
2017-11-06T13:35:38.775Z,55
2017-11-06T13:36:49.195Z,55
2017-11-06T13:37:59.624Z,55
2017-11-06T13:39:10.040Z,50
2017-11-06T13:40:20.365Z,50
2017-11-06T13:41:30.780Z,50
2017-11-06T13:42:41.165Z,50
2017-11-06T13:43:51.575Z,50
2017-11-06T13:45:01.988Z,45
2017-11-06T13:46:12.456Z,50
2017-11-06T13:47:22.873Z,45
2017-11-06T13:48:33.302Z,40
2017-11-06T13:49:43.726Z,40
2017-11-06T13:50:54.113Z,40
2017-11-06T13:52:04.591Z,40
2017-11-06T13:53:15.027Z,40
2017-11-06T13:54:25.436Z,40
2017-11-06T13:55:36.724Z,40
2017-11-06T13:56:47.154Z,40
2017-11-06T13:57:57.277Z,40
2017-11-06T13:59:07.015Z,40
2017-11-06T14:00:17.419Z,40
2017-11-06T14:01:27.826Z,40
2017-11-06T14:02:38.263Z,45
2017-11-06T14:03:48.732Z,45
2017-11-06T14:04:58.832Z,45
2017-11-06T14:06:08.953Z,45
2017-11-06T14:07:19.375Z,45
2017-11-06T14:08:29.452Z,45
2017-11-06T14:09:39.854Z,45
2017-11-06T14:10:49.924Z,45
2017-11-06T14:12:00.343Z,45
2017-11-06T14:13:10.428Z,45
2017-11-06T14:14:20.841Z,45
2017-11-06T14:15:30.968Z,45
2017-11-06T14:16:41.068Z,45
2017-11-06T14:17:51.504Z,45
2017-11-06T14:19:01.908Z,40
2017-11-06T14:20:12.328Z,35
2017-11-06T14:21:22.790Z,35
2017-11-06T14:22:33.225Z,35
2017-11-06T14:23:43.320Z,35
2017-11-06T14:24:53.730Z,35
2017-11-06T14:26:03.850Z,35
2017-11-06T14:27:14.267Z,35
2017-11-06T14:28:24.705Z,30
2017-11-06T14:29:35.122Z,30
2017-11-06T14:30:44.877Z,30
2017-11-06T14:31:55.289Z,30
2017-11-06T14:33:05.414Z,25
2017-11-06T14:34:15.838Z,25
2017-11-06T14:35:26.265Z,25
2017-11-06T14:36:36.673Z,20
2017-11-06T14:37:47.041Z,20
2017-11-06T14:38:57.453Z,20
2017-11-06T14:40:07.546Z,20
2017-11-06T14:41:17.973Z,15
2017-11-06T14:42:28.397Z,15
2017-11-06T14:43:39.681Z,15
2017-11-06T14:44:50.134Z,15
2017-11-06T14:46:00.223Z,10
2017-11-06T14:47:10.667Z,10
2017-11-06T14:48:20.425Z,10
2017-11-06T14:49:30.863Z,10
2017-11-06T14:50:40.673Z,10
2017-11-06T14:51:50.729Z,10
2017-11-06T14:53:00.830Z,10
2017-11-06T14:54:11.237Z,10
2017-11-06T14:55:21.313Z,10
2017-11-06T14:56:31.461Z,10
2017-11-06T14:57:41.876Z,10
2017-11-06T14:58:51.967Z,10
2017-11-06T15:00:02.371Z,10
2017-11-06T15:01:12.121Z,10
2017-11-06T15:02:22.244Z,10
2017-11-06T15:03:32.325Z,5
2017-11-06T15:04:42.079Z,5
2017-11-06T15:05:52.163Z,5
2017-11-06T15:07:01.916Z,5
2017-11-06T15:08:12.392Z,5
2017-11-06T15:09:22.796Z,5
2017-11-06T15:10:32.870Z,5
2017-11-06T15:11:42.975Z,5
2017-11-06T15:12:53.386Z,5
2017-11-06T15:14:03.848Z,0
2017-11-06T15:15:13.929Z,0
2017-11-06T15:16:24.351Z,0
2017-11-06T15:17:34.780Z,0
2017-11-06T15:18:45.193Z,0
2017-11-06T15:19:55.765Z,0
2017-11-06T15:21:06.204Z,0
2017-11-06T15:22:16.621Z,0
2017-11-06T15:23:26.696Z,0
2017-11-06T15:24:37.086Z,0
2017-11-06T15:25:46.898Z,0
2017-11-06T15:26:57.504Z,0
2017-11-06T15:28:08.388Z,0
2017-11-06T15:29:18.831Z,0
2017-11-06T15:30:29.218Z,0
2017-11-06T15:31:39.638Z,0
2017-11-06T15:32:49.885Z,0
2017-11-06T15:34:00.339Z,0
2017-11-06T15:35:10.382Z,0
2017-11-06T15:36:20.450Z,0
2017-11-06T15:37:30.917Z,0
2017-11-06T15:38:41.340Z,0
2017-11-06T15:39:51.812Z,0
2017-11-06T15:41:02.207Z,0
2017-11-06T15:42:12.634Z,0
2017-11-06T15:43:23.377Z,0
2017-11-06T15:44:33.782Z,0
2017-11-06T15:45:44.200Z,0
2017-11-06T15:46:54.511Z,0
2017-11-06T15:48:05.307Z,0
2017-11-06T15:49:15.828Z,0
2017-11-06T15:50:26.265Z,0
2017-11-06T15:51:36.342Z,0
2017-11-06T15:52:46.908Z,0
2017-11-06T15:53:57.325Z,0
2017-11-06T15:55:08.110Z,0
2017-11-06T15:56:18.606Z,0
2017-11-06T15:57:29.027Z,0
2017-11-06T15:58:39.440Z,0
2017-11-06T15:59:49.936Z,0
2017-11-06T16:01:00.058Z,0
2017-11-06T16:02:09.824Z,0
2017-11-06T16:03:20.262Z,0
2017-11-06T16:04:30.730Z,0
2017-11-06T16:05:40.835Z,0
2017-11-06T16:06:51.032Z,0
2017-11-06T16:08:01.464Z,0
2017-11-06T16:09:11.885Z,0
2017-11-06T16:10:22.312Z,0
2017-11-06T16:11:32.751Z,0
2017-11-06T16:12:42.867Z,0
2017-11-06T16:13:52.655Z,0
2017-11-06T16:15:02.735Z,0
2017-11-06T16:16:13.173Z,0
2017-11-06T16:17:23.289Z,0
2017-11-06T16:18:33.783Z,0
2017-11-06T16:19:44.214Z,0
2017-11-06T16:20:54.646Z,0
2017-11-06T16:22:04.713Z,0
2017-11-06T16:23:14.797Z,0
2017-11-06T16:24:24.942Z,0
2017-11-06T16:25:35.369Z,0
2017-11-06T16:26:45.452Z,0
2017-11-06T16:27:55.900Z,0
2017-11-06T16:29:06.315Z,0
2017-11-06T16:30:16.437Z,0
2017-11-06T16:31:26.519Z,0
2017-11-06T16:32:36.939Z,0
2017-11-06T16:33:47.372Z,0
2017-11-06T16:34:57.828Z,0
2017-11-06T16:36:08.333Z,0
2017-11-06T16:37:18.425Z,0
2017-11-06T16:38:28.857Z,0
2017-11-06T16:39:39.257Z,0
2017-11-06T16:40:49.342Z,0
2017-11-06T16:41:59.807Z,0
2017-11-06T16:43:10.254Z,0
2017-11-06T16:44:20.355Z,0
2017-11-06T16:45:30.805Z,0
2017-11-06T16:46:41.256Z,0
2017-11-06T16:47:51.729Z,0
2017-11-06T16:49:02.150Z,0
2017-11-06T16:50:12.561Z,0
2017-11-06T16:51:22.999Z,0
2017-11-06T16:52:33.056Z,0
2017-11-06T16:53:43.210Z,0
2017-11-06T16:54:53.322Z,0
2017-11-06T16:56:03.086Z,0
2017-11-06T16:57:13.537Z,0
2017-11-06T16:58:23.975Z,0
2017-11-06T16:59:34.435Z,0
2017-11-06T17:00:44.547Z,0
2017-11-06T17:01:54.639Z,0
2017-11-06T17:03:05.061Z,0
2017-11-06T17:04:15.362Z,0
2017-11-06T17:05:25.878Z,0
2017-11-06T17:06:35.984Z,0
2017-11-06T17:07:46.054Z,0
2017-11-06T17:08:56.472Z,0
2017-11-06T17:10:06.900Z,0
2017-11-06T17:11:17.365Z,0
2017-11-06T17:12:27.453Z,0
2017-11-06T17:13:37.524Z,0
2017-11-06T17:14:47.946Z,0
2017-11-06T17:15:57.699Z,0
2017-11-06T17:17:08.171Z,0
2017-11-06T17:18:18.628Z,0
2017-11-06T17:19:29.066Z,0
2017-11-06T17:20:39.489Z,0
2017-11-06T17:21:49.583Z,0
2017-11-06T17:22:59.979Z,0
2017-11-06T17:24:09.750Z,0
2017-11-06T17:25:19.831Z,0
2017-11-06T17:26:30.249Z,0
2017-11-06T17:27:40.690Z,0
2017-11-06T17:28:51.152Z,0
2017-11-06T17:30:01.573Z,0
2017-11-06T17:31:12.008Z,0